Time;durP1;ratioP1;P1;durP2;ratioP2;P2;SDS_P1;SDS_P2;PMS_P1;PMS_P2;Temp;Humidity;BMP_temperature;BMP_pressure;BME280_temperature;BME280_humidity;BME280_pressure;Samples;Min_cycle;Max_cycle;Signal;HPM_P1;HPM_P2
2023/08/21 00:01:01;;;;;;;11.20;4.25;;;;;;;18.84;100.00;102215.28;5089494;28;20036;-67
2023/08/21 00:03:26;;;;;;;6.07;2.95;;;;;;;18.82;100.00;102203.84;5091306;28;20032;-67
2023/08/21 00:05:52;;;;;;;5.97;2.90;;;;;;;18.89;100.00;102201.94;5090809;28;20028;-67
2023/08/21 00:08:17;;;;;;;5.88;2.90;;;;;;;18.93;100.00;102202.31;5090669;28;20487;-67
2023/08/21 00:10:43;;;;;;;5.90;2.95;;;;;;;18.88;100.00;102210.25;5090845;28;20043;-67
2023/08/21 00:13:08;;;;;;;8.07;3.28;;;;;;;18.90;100.00;102208.97;5090822;28;20089;-67
2023/08/21 00:15:34;;;;;;;7.75;3.85;;;;;;;18.86;100.00;102206.91;5091032;28;20543;-66
2023/08/21 00:18:00;;;;;;;8.63;3.40;;;;;;;18.79;100.00;102210.50;5090668;28;20047;-67
2023/08/21 00:20:26;;;;;;;3.75;2.80;;;;;;;18.81;100.00;102204.88;5090486;28;20085;-66
2023/08/21 00:22:52;;;;;;;6.78;3.28;;;;;;;18.84;100.00;102207.16;5090532;28;20059;-66
2023/08/21 00:25:17;;;;;;;4.95;3.25;;;;;;;18.87;100.00;102203.19;5090627;28;20055;-66
2023/08/21 00:27:43;;;;;;;6.43;2.97;;;;;;;18.86;100.00;102206.91;5090636;28;20024;-66
2023/08/21 00:30:09;;;;;;;10.98;4.03;;;;;;;18.77;100.00;102201.78;5090471;28;20035;-67
2023/08/21 00:32:34;;;;;;;5.45;2.97;;;;;;;18.77;100.00;102203.66;5090663;28;20028;-67
2023/08/21 00:34:59;;;;;;;7.85;2.90;;;;;;;18.80;100.00;102208.63;5090309;28;20061;-66
2023/08/21 00:37:25;;;;;;;3.90;2.83;;;;;;;18.79;100.00;102206.97;5090376;28;20108;-67
2023/08/21 00:39:50;;;;;;;6.13;3.17;;;;;;;18.82;100.00;102203.84;5089916;28;20020;-67
2023/08/21 00:42:15;;;;;;;5.63;3.28;;;;;;;18.82;100.00;102206.53;5090232;28;20389;-67
2023/08/21 00:44:41;;;;;;;7.80;3.15;;;;;;;18.85;100.00;102203.41;5090007;28;20032;-67
2023/08/21 00:47:06;;;;;;;6.53;3.05;;;;;;;18.85;100.00;102211.50;5090355;28;20464;-67
2023/08/21 00:49:32;;;;;;;6.15;3.72;;;;;;;18.87;100.00;102205.91;5089955;28;20093;-67
2023/08/21 00:51:59;;;;;;;8.75;4.03;;;;;;;18.77;100.00;102198.25;5089935;28;20035;-67
2023/08/21 00:54:25;;;;;;;12.02;4.00;;;;;;;18.74;100.00;102188.69;5079575;28;20049;-66
2023/08/21 00:56:52;;;;;;;11.40;4.15;;;;;;;18.76;100.00;102189.31;5070580;28;20092;-66
2023/08/21 00:59:18;;;;;;;10.70;3.78;;;;;;;18.70;100.00;102197.44;5088488;28;20133;-67
2023/08/21 01:01:44;;;;;;;5.15;2.67;;;;;;;18.68;100.00;102191.41;5089769;28;20403;-67
2023/08/21 01:04:10;;;;;;;7.85;4.03;;;;;;;18.65;100.00;102192.66;5088630;28;20038;-67
2023/08/21 01:06:35;;;;;;;8.00;4.00;;;;;;;18.64;100.00;102188.31;5089112;28;20035;-67
2023/08/21 01:09:36;;;;;;;4.40;2.85;;;;;;;18.65;100.00;102189.97;5089794;28;20024;-67
2023/08/21 01:12:33;;;;;;;11.80;3.80;;;;;;;18.60;100.00;102198.75;5068358;28;20125;-67
2023/08/21 01:15:09;;;;;;;11.23;3.72;;;;;;;18.54;100.00;102194.19;5089687;28;20058;-67
2023/08/21 01:17:37;;;;;;;7.30;4.15;;;;;;;18.53;100.00;102192.56;5089534;28;20119;-67
2023/08/21 01:20:03;;;;;;;7.30;3.47;;;;;;;18.52;100.00;102193.59;5089537;28;20032;-66
2023/08/21 01:22:37;;;;;;;10.10;3.33;;;;;;;18.52;100.00;102198.16;5089879;28;20435;-66
2023/08/21 01:25:07;;;;;;;8.27;3.20;;;;;;;18.48;100.00;102199.66;5089190;28;20031;-67
2023/08/21 01:27:35;;;;;;;10.35;3.10;;;;;;;18.44;100.00;102193.00;5089325;28;20028;-66
2023/08/21 01:30:03;;;;;;;8.40;3.80;;;;;;;18.44;100.00;102195.72;5089398;28;20032;-66
2023/08/21 01:33:00;;;;;;;7.28;3.47;;;;;;;18.45;100.00;102202.78;5089123;28;20055;-66
2023/08/21 01:35:29;;;;;;;4.25;3.13;;;;;;;18.44;100.00;102190.31;5089029;28;20031;-66
2023/08/21 01:37:55;;;;;;;7.43;3.75;;;;;;;18.33;100.00;102183.72;5089143;28;20100;-66
2023/08/21 01:40:24;;;;;;;4.78;2.92;;;;;;;18.37;100.00;102193.88;5089135;28;20063;-66
2023/08/21 01:42:49;;;;;;;7.30;4.10;;;;;;;18.35;100.00;102201.38;5088958;28;20035;-66
2023/08/21 01:45:15;;;;;;;5.25;3.40;;;;;;;18.28;100.00;102195.16;5089124;28;20024;-66
2023/08/21 01:47:40;;;;;;;8.43;3.67;;;;;;;18.23;100.00;102199.56;5069649;28;20035;-67
2023/08/21 01:50:06;;;;;;;6.88;3.90;;;;;;;18.11;100.00;102188.63;5069679;28;20028;-66
2023/08/21 01:52:32;;;;;;;8.60;3.67;;;;;;;18.04;100.00;102179.69;5069238;28;20199;-67
2023/08/21 01:54:58;;;;;;;7.10;3.35;;;;;;;18.00;100.00;102186.56;5069751;28;20047;-66
2023/08/21 01:57:23;;;;;;;8.18;3.60;;;;;;;17.97;100.00;102182.41;5069664;28;20964;-66
2023/08/21 01:59:49;;;;;;;5.15;3.20;;;;;;;17.94;100.00;102180.97;5069369;28;20025;-66
2023/08/21 02:02:14;;;;;;;8.23;3.53;;;;;;;17.93;100.00;102182.03;5069233;28;20035;-66
2023/08/21 02:04:39;;;;;;;8.18;3.78;;;;;;;17.93;100.00;102183.91;5069555;28;20577;-66
2023/08/21 02:07:05;;;;;;;7.40;4.22;;;;;;;17.86;100.00;102181.22;5069441;28;20107;-66
2023/08/21 02:09:30;;;;;;;6.45;3.70;;;;;;;17.79;100.00;102188.50;5088860;28;20077;-67
2023/08/21 02:11:55;;;;;;;5.40;3.58;;;;;;;17.70;100.00;102187.88;5088586;28;20040;-67
2023/08/21 02:14:21;;;;;;;11.20;4.65;;;;;;;17.67;100.00;102185.59;5088741;28;20382;-66
2023/08/21 02:16:46;;;;;;;7.72;4.28;;;;;;;17.63;100.00;102189.78;5088319;28;20028;-67
2023/08/21 02:19:11;;;;;;;8.68;3.60;;;;;;;17.65;100.00;102187.66;5088162;28;20482;-67
2023/08/21 02:21:37;;;;;;;6.85;3.65;;;;;;;17.61;100.00;102197.25;5088513;28;20064;-67
2023/08/21 02:24:02;;;;;;;8.63;4.20;;;;;;;17.61;100.00;102199.13;5088720;28;20310;-66
2023/08/21 02:26:28;;;;;;;8.27;4.03;;;;;;;17.56;100.00;102191.66;5088466;28;20468;-67
2023/08/21 02:28:53;;;;;;;7.60;3.75;;;;;;;17.56;100.00;102188.13;5088502;28;20028;-66
2023/08/21 02:31:19;;;;;;;6.60;2.88;;;;;;;17.54;100.00;102188.31;5087087;28;20103;-66
2023/08/21 02:33:44;;;;;;;5.15;3.03;;;;;;;17.51;100.00;102196.84;5088420;28;20437;-66
2023/08/21 02:36:10;;;;;;;7.95;2.88;;;;;;;17.42;100.00;102192.69;5088482;28;20434;-66
2023/08/21 02:38:35;;;;;;;7.68;3.47;;;;;;;17.33;100.00;102193.97;5088469;28;20479;-66
2023/08/21 02:41:00;;;;;;;6.50;3.40;;;;;;;17.32;100.00;102193.13;5088390;28;20032;-66
2023/08/21 02:43:26;;;;;;;6.78;3.38;;;;;;;17.33;100.00;102205.56;5088436;28;20454;-66
2023/08/21 02:45:51;;;;;;;8.23;4.00;;;;;;;17.29;100.00;102201.63;5088361;28;20032;-66
2023/08/21 02:48:17;;;;;;;5.72;3.30;;;;;;;17.22;100.00;102195.41;5068955;28;20499;-66
2023/08/21 02:50:43;;;;;;;4.85;3.72;;;;;;;17.20;100.00;102194.78;5068976;28;20036;-66
2023/08/21 02:53:08;;;;;;;6.90;3.58;;;;;;;17.20;100.00;102197.47;5088080;28;20156;-66
2023/08/21 02:55:34;;;;;;;7.60;4.30;;;;;;;17.16;100.00;102191.69;5088222;28;20684;-66
2023/08/21 02:57:59;;;;;;;6.68;3.53;;;;;;;17.21;100.00;102199.13;5088356;28;20505;-66
2023/08/21 03:00:25;;;;;;;11.65;3.70;;;;;;;17.17;100.00;102203.28;5088126;28;20036;-66
2023/08/21 03:02:50;;;;;;;6.70;3.40;;;;;;;17.19;100.00;102202.06;5088073;28;20123;-66
2023/08/21 03:05:16;;;;;;;6.50;3.90;;;;;;;17.19;100.00;102198.53;5088187;28;20036;-66
2023/08/21 03:07:41;;;;;;;7.53;4.22;;;;;;;17.13;100.00;102197.47;5088206;28;20024;-66
2023/08/21 03:10:07;;;;;;;5.57;3.80;;;;;;;17.15;100.00;102184.63;5088151;28;20047;-66
2023/08/21 03:12:33;;;;;;;7.47;5.25;;;;;;;17.13;100.00;102193.94;5088001;28;20032;-66
2023/08/21 03:14:58;;;;;;;6.30;4.50;;;;;;;17.09;100.00;102196.25;5088024;28;20146;-66
2023/08/21 03:17:24;;;;;;;6.90;3.60;;;;;;;17.06;100.00;102193.97;5088122;28;20035;-66
2023/08/21 03:19:49;;;;;;;7.82;4.30;;;;;;;17.01;100.00;102193.75;5068662;28;20032;-66
2023/08/21 03:22:15;;;;;;;8.05;4.15;;;;;;;17.01;100.00;102194.56;5068513;28;20021;-66
2023/08/21 03:24:40;;;;;;;7.40;4.10;;;;;;;16.98;100.00;102195.00;5068716;28;20052;-66
2023/08/21 03:27:05;;;;;;;6.68;3.95;;;;;;;16.96;100.00;102186.28;5068744;28;20035;-66
2023/08/21 03:29:31;;;;;;;10.48;3.70;;;;;;;16.99;100.00;102190.44;5089964;28;20069;-66
2023/08/21 03:31:57;;;;;;;11.40;5.38;;;;;;;17.04;100.00;102194.16;5091388;28;20136;-66
2023/08/21 03:34:23;;;;;;;7.05;4.20;;;;;;;17.06;100.00;102199.34;5091590;28;20475;-66
2023/08/21 03:36:48;;;;;;;8.13;4.10;;;;;;;17.09;100.00;102196.25;5091414;28;20039;-67
2023/08/21 03:39:13;;;;;;;10.82;4.57;;;;;;;17.13;100.00;102200.16;5091411;28;20497;-66
2023/08/21 03:41:39;;;;;;;9.25;4.40;;;;;;;17.16;100.00;102207.00;5091304;28;20036;-66
2023/08/21 03:44:04;;;;;;;8.40;4.65;;;;;;;17.16;100.00;102202.47;5091358;28;20479;-66
2023/08/21 03:46:29;;;;;;;10.02;4.88;;;;;;;17.11;100.00;102199.56;5091271;28;20051;-67
2023/08/21 03:48:55;;;;;;;10.68;5.45;;;;;;;17.14;100.00;102201.03;5091314;28;20034;-67
2023/08/21 03:51:20;;;;;;;8.55;4.20;;;;;;;17.05;100.00;102197.69;5091098;28;20391;-66
2023/08/21 03:53:46;;;;;;;10.43;5.85;;;;;;;17.05;100.00;102197.69;5091062;28;20056;-67
2023/08/21 03:56:11;;;;;;;14.30;5.15;;;;;;;17.05;100.00;102192.28;5091696;28;20035;-67
2023/08/21 03:58:36;;;;;;;9.02;4.07;;;;;;;16.97;100.00;102189.78;5091220;28;20064;-67
2023/08/21 04:01:02;;;;;;;10.15;5.70;;;;;;;16.96;100.00;102190.84;5091093;28;20071;-67
2023/08/21 04:03:27;;;;;;;8.23;4.90;;;;;;;16.95;100.00;102191.88;5091052;28;20032;-66
2023/08/21 04:05:54;;;;;;;18.15;5.28;;;;;;;16.88;100.00;102183.78;5090730;28;20411;-66
2023/08/21 04:08:20;;;;;;;11.85;4.22;;;;;;;16.83;100.00;102186.28;5090835;28;20028;-66
2023/08/21 04:10:45;;;;;;;12.02;5.13;;;;;;;16.80;100.00;102182.13;5090824;28;20050;-67
2023/08/21 04:13:10;;;;;;;9.25;4.35;;;;;;;16.80;100.00;102190.19;5090910;28;20479;-66
2023/08/21 04:15:36;;;;;;;12.57;4.72;;;;;;;16.80;100.00;102200.16;5071464;28;20043;-67
2023/08/21 04:18:01;;;;;;;18.13;5.32;;;;;;;16.85;100.00;102197.69;5071474;28;20028;-67
2023/08/21 04:20:26;;;;;;;6.13;3.80;;;;;;;16.86;100.00;102199.31;5071188;28;20039;-67
2023/08/21 04:22:52;;;;;;;10.73;4.72;;;;;;;16.82;100.00;102189.97;5071249;28;20024;-66
2023/08/21 04:25:17;;;;;;;10.60;4.70;;;;;;;16.86;100.00;102194.75;5071163;28;20442;-66
2023/08/21 04:27:43;;;;;;;8.45;4.57;;;;;;;16.87;100.00;102198.28;5071194;28;20031;-66
2023/08/21 04:30:09;;;;;;;6.55;4.22;;;;;;;16.89;100.00;102195.38;5090332;28;20048;-67
2023/08/21 04:32:35;;;;;;;12.20;3.95;;;;;;;16.92;100.00;102197.66;5089614;28;20043;-67
2023/08/21 04:35:01;;;;;;;9.55;4.93;;;;;;;16.89;100.00;102200.78;5086040;28;20032;-66
2023/08/21 04:37:26;;;;;;;9.20;5.03;;;;;;;16.88;100.00;102197.25;5070123;28;20039;-67
2023/08/21 04:39:53;;;;;;;12.32;5.68;;;;;;;16.85;100.00;102206.59;5069605;28;20082;-67
2023/08/21 04:42:18;;;;;;;12.63;5.05;;;;;;;16.84;100.00;102207.59;5088960;28;20022;-67
2023/08/21 04:44:44;;;;;;;10.50;4.95;;;;;;;16.92;100.00;102211.97;5089794;28;20457;-66
2023/08/21 04:47:23;;;;;;;12.63;6.30;;;;;;;16.94;100.00;102217.16;5090069;28;20035;-67
2023/08/21 04:49:49;;;;;;;17.98;6.43;;;;;;;16.92;100.00;102220.06;5089934;28;20529;-66
2023/08/21 04:52:14;;;;;;;8.32;4.15;;;;;;;16.92;100.00;102217.34;5088811;28;20093;-66
2023/08/21 04:54:40;;;;;;;6.13;4.35;;;;;;;16.88;100.00;102216.13;5089726;28;20060;-66
2023/08/21 04:57:05;;;;;;;10.25;4.43;;;;;;;16.90;100.00;102224.84;5088565;28;20032;-66
2023/08/21 04:59:30;;;;;;;16.08;4.93;;;;;;;16.93;100.00;102220.91;5089597;28;20039;-66
2023/08/21 05:01:56;;;;;;;9.13;4.82;;;;;;;16.97;100.00;102222.97;5070248;28;20137;-66
2023/08/21 05:04:21;;;;;;;17.25;5.82;;;;;;;17.03;100.00;102224.03;5089814;28;20036;-67
2023/08/21 05:06:47;;;;;;;13.55;6.00;;;;;;;17.09;100.00;102225.91;5088541;28;20543;-67
2023/08/21 05:09:12;;;;;;;8.70;5.07;;;;;;;17.07;100.00;102219.88;5089712;28;20066;-67
2023/08/21 05:11:37;;;;;;;15.80;6.95;;;;;;;17.12;100.00;102221.97;5089723;28;20417;-67
2023/08/21 05:14:03;;;;;;;10.77;5.53;;;;;;;17.14;100.00;102222.59;5089431;28;20036;-67
2023/08/21 05:16:28;;;;;;;9.25;5.63;;;;;;;17.19;100.00;102226.31;5089671;28;20035;-67
2023/08/21 05:18:53;;;;;;;10.77;5.13;;;;;;;17.24;100.00;102234.63;5089363;28;20032;-67
2023/08/21 05:21:19;;;;;;;7.50;4.90;;;;;;;17.27;100.00;102236.91;5089576;28;20028;-66
2023/08/21 05:23:44;;;;;;;13.93;5.65;;;;;;;17.28;100.00;102241.25;5089486;28;20070;-66
2023/08/21 05:26:09;;;;;;;12.65;6.38;;;;;;;17.36;100.00;102250.16;5089451;28;20067;-67
2023/08/21 05:28:35;;;;;;;12.40;5.35;;;;;;;17.38;100.00;102246.22;5089239;28;20031;-67
2023/08/21 05:31:00;;;;;;;12.60;5.75;;;;;;;17.48;100.00;102253.91;5088385;28;20055;-66
2023/08/21 05:33:26;;;;;;;11.00;6.28;;;;;;;17.56;100.00;102252.88;5089410;28;20032;-67
2023/08/21 05:35:51;;;;;;;9.45;5.90;;;;;;;17.62;100.00;102244.75;5089074;28;20045;-67
2023/08/21 05:38:16;;;;;;;9.48;5.80;;;;;;;17.61;100.00;102239.59;5089178;28;20021;-66
2023/08/21 05:40:42;;;;;;;13.82;6.38;;;;;;;17.64;100.00;102241.84;5089049;28;20043;-67
2023/08/21 05:43:08;;;;;;;9.82;5.50;;;;;;;17.66;100.00;102245.19;5087768;28;20115;-66
2023/08/21 05:45:33;;;;;;;14.73;6.38;;;;;;;17.67;100.00;102252.22;5089009;28;20077;-67
2023/08/21 05:47:58;;;;;;;13.90;5.25;;;;;;;17.70;100.00;102249.09;5089152;28;20028;-66
2023/08/21 05:50:24;;;;;;;6.65;5.05;;;;;;;17.69;100.00;102255.56;5089112;28;20387;-66
2023/08/21 05:52:49;;;;;;;10.63;5.40;;;;;;;17.74;100.00;102259.28;5088619;28;20155;-66
2023/08/21 05:55:14;;;;;;;12.77;5.97;;;;;;;17.83;100.00;102268.00;5088928;28;20100;-66
2023/08/21 05:57:40;;;;;;;12.82;6.30;;;;;;;17.89;100.00;102263.63;5088866;28;20123;-67
2023/08/21 06:00:08;;;;;;;10.35;5.20;;;;;;;17.98;100.00;102264.25;5089103;28;20028;-66
2023/08/21 06:02:33;;;;;;;15.07;5.45;;;;;;;18.05;100.00;102257.78;5069493;28;20090;-66
2023/08/21 06:04:59;;;;;;;12.85;6.68;;;;;;;18.15;100.00;102265.44;5069450;28;20601;-66
2023/08/21 06:07:24;;;;;;;10.98;5.65;;;;;;;18.21;100.00;102264.59;5069440;28;20034;-66
2023/08/21 06:09:50;;;;;;;11.55;6.40;;;;;;;18.21;100.00;102261.91;5069445;28;20390;-66
2023/08/21 06:12:15;;;;;;;17.83;7.38;;;;;;;18.20;100.00;102252.13;5069326;28;20028;-67
2023/08/21 06:14:41;;;;;;;12.05;5.97;;;;;;;18.22;100.00;102257.31;5069345;28;20078;-67
2023/08/21 06:17:06;;;;;;;15.02;6.47;;;;;;;18.20;100.00;102264.81;5069417;28;20075;-67
2023/08/21 06:19:32;;;;;;;11.55;6.28;;;;;;;18.20;100.00;102262.09;5069357;28;20040;-67
2023/08/21 06:21:58;;;;;;;14.18;6.80;;;;;;;18.22;100.00;102260.84;5051235;28;20025;-67
2023/08/21 06:24:24;;;;;;;19.20;6.38;;;;;;;18.27;100.00;102263.75;5088502;28;20035;-66
2023/08/21 06:26:51;;;;;;;15.95;7.13;;;;;;;18.39;100.00;102266.59;5087162;28;20034;-66
2023/08/21 06:29:17;;;;;;;10.15;6.43;;;;;;;18.43;100.00;102258.91;5088391;28;20028;-66
2023/08/21 06:31:43;;;;;;;11.85;7.07;;;;;;;18.52;100.00;102268.41;5087214;28;20028;-66
2023/08/21 06:34:08;;;;;;;13.65;7.32;;;;;;;18.58;100.00;102265.69;5088891;28;20433;-66
2023/08/21 06:36:33;;;;;;;14.45;7.82;;;;;;;18.57;100.00;102271.28;5069261;28;20028;-66
2023/08/21 06:38:59;;;;;;;13.82;6.80;;;;;;;18.61;100.00;102276.06;5084210;28;20594;-66
2023/08/21 06:41:25;;;;;;;13.05;7.03;;;;;;;18.66;100.00;102275.44;5088389;28;20054;-66
2023/08/21 06:43:50;;;;;;;15.30;6.68;;;;;;;18.69;100.00;102269.59;5088422;28;20040;-66
2023/08/21 06:46:16;;;;;;;15.63;7.65;;;;;;;18.75;100.00;102282.25;5088388;28;20187;-66
2023/08/21 06:48:42;;;;;;;11.02;7.25;;;;;;;18.83;100.00;102275.75;5088218;28;20442;-66
2023/08/21 06:51:08;;;;;;;14.15;7.78;;;;;;;18.91;100.00;102272.81;5088463;28;20024;-66
2023/08/21 06:53:34;;;;;;;13.70;7.90;;;;;;;19.00;100.00;102276.09;5088180;28;20068;-66
2023/08/21 06:56:00;;;;;;;13.02;6.45;;;;;;;19.04;100.00;102277.31;5088110;28;20394;-67
2023/08/21 06:58:25;;;;;;;12.45;6.55;;;;;;;19.08;100.00;102277.72;5088220;28;20044;-67
2023/08/21 07:00:50;;;;;;;12.68;5.75;;;;;;;19.12;100.00;102278.91;5088176;28;20062;-67
2023/08/21 07:03:16;;;;;;;12.20;5.50;;;;;;;19.16;100.00;102280.97;5088329;28;20090;-67
2023/08/21 07:05:45;;;;;;;10.75;5.55;;;;;;;19.16;100.00;102286.38;5075650;28;20029;-67
2023/08/21 07:08:11;;;;;;;10.70;6.10;;;;;;;19.18;100.00;102281.59;5072253;28;20043;-67
2023/08/21 07:10:37;;;;;;;16.98;6.03;;;;;;;19.18;100.00;102275.34;5091347;28;20032;-67
2023/08/21 07:13:03;;;;;;;12.73;6.55;;;;;;;19.25;100.00;102270.69;5092213;28;20043;-66
2023/08/21 07:15:29;;;;;;;11.55;5.63;;;;;;;19.29;100.00;102274.63;5091718;28;20048;-67
2023/08/21 07:17:55;;;;;;;12.88;5.82;;;;;;;19.38;100.00;102286.00;5091804;28;20030;-67
2023/08/21 07:20:21;;;;;;;18.38;5.53;;;;;;;19.45;100.00;102284.91;5091860;28;20040;-67
2023/08/21 07:22:47;;;;;;;12.13;5.25;;;;;;;19.55;100.00;102287.13;5091548;28;20043;-67
2023/08/21 07:25:12;;;;;;;9.63;5.47;;;;;;;19.63;100.00;102291.44;5091671;28;20032;-67
2023/08/21 07:27:38;;;;;;;11.20;5.60;;;;;;;19.72;100.00;102286.59;5092143;28;20406;-67
2023/08/21 07:30:05;;;;;;;15.38;6.53;;;;;;;19.77;100.00;102290.28;5079310;28;20039;-67
2023/08/21 07:32:30;;;;;;;10.25;4.65;;;;;;;19.79;100.00;102292.78;5075789;28;20036;-68
2023/08/21 07:34:55;;;;;;;8.15;4.80;;;;;;;19.86;100.00;102288.13;5068651;28;20364;-67
2023/08/21 07:37:21;;;;;;;9.02;4.00;;;;;;;19.93;100.00;102281.56;5068894;28;20115;-66
2023/08/21 07:39:46;;;;;;;10.07;3.92;;;;;;;20.06;100.00;102286.03;5069015;28;20029;-64
2023/08/21 07:42:12;;;;;;;10.30;4.38;;;;;;;20.22;100.00;102284.59;5069103;28;20028;-67
2023/08/21 07:44:39;;;;;;;9.93;5.35;;;;;;;20.30;100.00;102278.03;5088636;28;20059;-66
2023/08/21 07:47:05;;;;;;;11.00;5.78;;;;;;;20.28;100.00;102280.19;5087227;28;20028;-66
2023/08/21 07:49:31;;;;;;;10.90;5.95;;;;;;;20.23;100.00;102290.88;5088641;28;20109;-68
2023/08/21 07:51:56;;;;;;;12.23;4.88;;;;;;;20.25;100.00;102292.28;5088060;28;20030;-67
2023/08/21 07:54:22;;;;;;;10.07;5.28;;;;;;;20.35;100.00;102299.88;5087800;28;20051;-68
2023/08/21 07:56:47;;;;;;;11.10;6.00;;;;;;;20.48;100.00;102299.72;5087825;28;20115;-67
2023/08/21 07:59:12;;;;;;;14.93;5.35;;;;;;;20.63;100.00;102287.69;5087985;28;20062;-66
2023/08/21 08:01:38;;;;;;;14.15;5.78;;;;;;;20.88;100.00;102298.38;5071382;28;20043;-67
2023/08/21 08:04:04;;;;;;;11.63;6.15;;;;;;;21.04;100.00;102299.63;5069333;28;20044;-66
2023/08/21 08:06:30;;;;;;;11.60;6.18;;;;;;;21.15;97.49;102293.41;5068765;28;20036;-66
2023/08/21 08:08:55;;;;;;;14.13;6.22;;;;;;;21.17;96.15;102300.28;5068969;28;20871;-68
2023/08/21 08:11:20;;;;;;;10.43;5.65;;;;;;;21.11;96.84;102301.19;5067927;28;20418;-67
2023/08/21 08:13:46;;;;;;;11.32;6.40;;;;;;;21.14;97.71;102298.03;5067642;28;20024;-68
2023/08/21 08:16:11;;;;;;;12.40;5.63;;;;;;;21.27;100.00;102304.28;5068668;28;20097;-66
2023/08/21 08:18:36;;;;;;;22.63;8.23;;;;;;;21.62;97.59;102307.09;5068899;28;20494;-66
2023/08/21 08:21:02;;;;;;;13.68;6.88;;;;;;;21.77;94.86;102303.91;5068289;28;20091;-68
2023/08/21 08:23:27;;;;;;;17.40;7.45;;;;;;;21.87;93.59;102307.66;5068313;28;20060;-67
2023/08/21 08:25:53;;;;;;;12.55;5.72;;;;;;;22.47;92.37;102308.44;5068598;28;20036;-66
2023/08/21 08:28:18;;;;;;;11.85;5.65;;;;;;;23.98;82.50;102301.56;5068570;28;20031;-67
2023/08/21 08:30:44;;;;;;;10.20;4.80;;;;;;;24.34;80.55;102297.41;5068135;28;20040;-66
2023/08/21 08:33:10;;;;;;;12.88;5.45;;;;;;;24.31;77.53;102308.81;5068632;28;20029;-66
2023/08/21 08:35:35;;;;;;;9.85;3.70;;;;;;;24.38;76.70;102304.00;5068026;28;20091;-67
2023/08/21 08:38:01;;;;;;;11.55;4.45;;;;;;;24.69;74.72;102297.00;5068496;28;20029;-64
2023/08/21 08:40:26;;;;;;;14.90;5.00;;;;;;;24.76;73.34;102296.81;5088987;28;20047;-67
2023/08/21 08:42:51;;;;;;;7.80;3.33;;;;;;;24.77;74.58;102295.72;5088053;28;20041;-66
2023/08/21 08:45:33;;;;;;;9.13;3.70;;;;;;;25.01;75.46;102293.50;5071405;28;20094;-67
2023/08/21 08:48:03;;;;;;;6.90;3.60;;;;;;;25.44;73.13;102301.81;5081561;28;20064;-68
2023/08/21 08:50:30;;;;;;;6.75;3.78;;;;;;;25.08;71.52;102299.59;5089548;28;20050;-68
2023/08/21 08:52:58;;;;;;;11.43;4.05;;;;;;;24.51;75.38;102302.81;5089494;28;20938;-68
2023/08/21 08:55:23;;;;;;;6.68;3.10;;;;;;;24.21;75.69;102312.25;5090284;28;20108;-68
2023/08/21 08:57:49;;;;;;;13.02;3.90;;;;;;;23.93;77.74;102306.94;5090380;28;20459;-68
2023/08/21 09:00:15;;;;;;;8.45;3.95;;;;;;;23.71;79.88;102298.69;5090382;28;20031;-68
2023/08/21 09:02:41;;;;;;;9.00;3.08;;;;;;;23.62;78.66;102304.53;5070624;28;20135;-67
2023/08/21 09:05:08;;;;;;;6.18;2.60;;;;;;;23.58;80.41;102302.59;5070849;28;20028;-67
2023/08/21 09:07:33;;;;;;;6.63;3.22;;;;;;;23.52;79.00;102298.94;5088802;28;20042;-68
2023/08/21 09:09:59;;;;;;;8.27;2.55;;;;;;;23.51;79.35;102296.47;5090315;28;20036;-68
2023/08/21 09:12:24;;;;;;;5.82;2.40;;;;;;;23.49;79.76;102293.19;5089990;28;20062;-68
2023/08/21 09:14:49;;;;;;;11.27;3.97;;;;;;;23.47;81.63;102293.41;5090135;28;20028;-68
2023/08/21 09:17:15;;;;;;;10.38;2.92;;;;;;;23.48;81.01;102294.25;5089847;28;20046;-68
2023/08/21 09:19:42;;;;;;;9.00;3.10;;;;;;;23.54;82.51;102295.97;5089771;28;20394;-67
2023/08/21 09:22:15;;;;;;;5.72;2.30;;;;;;;23.62;79.95;102290.09;5089590;28;20522;-68
2023/08/21 09:25:00;;;;;;;7.88;2.40;;;;;;;23.84;81.23;102290.19;5089608;28;20121;-68
2023/08/21 09:27:25;;;;;;;5.35;3.10;;;;;;;23.97;80.68;102294.44;5089319;28;20051;-68
2023/08/21 09:29:51;;;;;;;7.85;2.40;;;;;;;23.93;72.56;102291.41;5089721;28;20028;-68
2023/08/21 09:32:16;;;;;;;4.90;1.92;;;;;;;23.75;73.60;102295.25;5089628;28;20496;-68
2023/08/21 09:34:42;;;;;;;4.30;1.98;;;;;;;23.60;75.01;102289.53;5073529;28;20111;-67
2023/08/21 09:37:09;;;;;;;7.60;2.08;;;;;;;23.58;80.64;102288.97;5070222;28;20028;-68
2023/08/21 09:39:36;;;;;;;5.63;1.83;;;;;;;23.67;77.72;102286.66;5089393;28;20024;-68
2023/08/21 09:42:06;;;;;;;6.20;2.58;;;;;;;23.68;75.34;102289.09;5089361;28;20043;-68
2023/08/21 09:44:39;;;;;;;18.95;3.67;;;;;;;23.77;76.54;102284.94;5089418;28;20035;-68
2023/08/21 09:47:09;;;;;;;7.28;2.88;;;;;;;23.90;74.50;102294.66;5088993;28;20086;-67
2023/08/21 09:49:36;;;;;;;5.35;2.25;;;;;;;23.95;70.74;102292.00;5089273;28;20064;-68
2023/08/21 09:52:04;;;;;;;8.82;1.95;;;;;;;24.08;71.44;102295.41;5089370;28;20089;-68
2023/08/21 09:54:31;;;;;;;12.07;2.35;;;;;;;24.19;69.20;102298.03;5087841;28;20462;-68
2023/08/21 09:56:57;;;;;;;6.22;1.95;;;;;;;24.16;69.62;102295.81;5088982;28;20057;-68
2023/08/21 09:59:24;;;;;;;5.43;2.50;;;;;;;24.15;68.67;102285.97;5080222;28;20028;-68
2023/08/21 10:01:51;;;;;;;8.23;2.00;;;;;;;24.13;72.57;102288.16;5069760;28;20175;-68
2023/08/21 10:04:17;;;;;;;6.22;2.15;;;;;;;24.02;77.00;102287.16;5089060;28;20031;-68
2023/08/21 10:06:45;;;;;;;8.32;2.42;;;;;;;24.01;73.08;102281.97;5088989;28;20031;-68
2023/08/21 10:09:12;;;;;;;11.15;2.33;;;;;;;23.98;72.40;102285.22;5088804;28;20480;-68
2023/08/21 10:11:38;;;;;;;3.88;1.92;;;;;;;23.95;71.63;102275.63;5088898;28;20080;-68
2023/08/21 10:14:04;;;;;;;4.50;2.25;;;;;;;24.03;77.72;102280.66;5068644;28;20035;-68
2023/08/21 10:16:29;;;;;;;7.15;2.38;;;;;;;24.19;73.80;102269.94;5069041;28;20139;-68
2023/08/21 10:18:55;;;;;;;8.02;1.98;;;;;;;24.17;73.13;102274.81;5088554;28;20035;-68
2023/08/21 10:21:22;;;;;;;8.77;3.35;;;;;;;24.15;72.62;102271.53;5088766;28;20067;-68
2023/08/21 10:23:54;;;;;;;9.55;2.30;;;;;;;24.33;71.04;102267.66;5088714;28;20035;-68
2023/08/21 10:26:21;;;;;;;5.50;2.20;;;;;;;24.42;74.71;102266.97;5088627;28;20031;-67
2023/08/21 10:28:55;;;;;;;11.18;2.47;;;;;;;24.41;73.55;102261.75;5089067;28;20110;-67
2023/08/21 10:31:34;;;;;;;7.75;4.18;;;;;;;24.45;73.33;102269.19;5088773;28;20115;-67
2023/08/21 10:34:03;;;;;;;11.57;2.70;;;;;;;24.49;70.76;102266.78;5069442;28;20036;-67
2023/08/21 10:36:39;;;;;;;8.30;4.18;;;;;;;24.69;71.25;102261.53;5088522;28;20058;-67
2023/08/21 10:39:14;;;;;;;7.30;2.97;;;;;;;24.73;70.60;102261.84;5090149;28;20036;-67
2023/08/21 10:41:40;;;;;;;7.47;2.00;;;;;;;24.81;72.48;102261.41;5093032;28;20031;-67
2023/08/21 10:44:06;;;;;;;8.80;2.13;;;;;;;24.85;71.34;102251.59;5093027;28;20032;-67
2023/08/21 10:46:50;;;;;;;3.92;2.38;;;;;;;24.79;73.74;102260.00;5092945;28;20039;-67
2023/08/21 10:49:15;;;;;;;3.75;1.83;;;;;;;24.69;70.24;102255.28;5092474;28;20035;-68
2023/08/21 10:51:42;;;;;;;7.43;3.22;;;;;;;24.71;65.13;102264.84;5092645;28;20020;-67
2023/08/21 10:54:13;;;;;;;2.25;1.27;;;;;;;24.81;67.61;102263.28;5092667;28;20087;-67
2023/08/21 10:56:38;;;;;;;6.40;2.30;;;;;;;24.90;67.28;102273.47;5075907;28;20029;-65
2023/08/21 10:59:03;;;;;;;2.55;1.40;;;;;;;24.95;66.73;102271.91;5069600;28;20104;-65
2023/08/21 11:01:44;;;;;;;2.85;1.35;;;;;;;25.03;65.33;102274.97;5073272;28;20054;-66
2023/08/21 11:04:10;;;;;;;2.20;1.70;;;;;;;25.16;62.93;102275.66;5073842;28;20028;-66
2023/08/21 11:06:36;;;;;;;4.10;0.95;;;;;;;25.18;58.90;102277.06;5068621;28;20530;-65
2023/08/21 11:09:03;;;;;;;2.53;1.20;;;;;;;25.19;61.01;102275.13;5069148;28;20120;-65
2023/08/21 11:11:29;;;;;;;6.85;1.50;;;;;;;25.28;63.67;102274.41;5069353;28;20032;-65
2023/08/21 11:13:55;;;;;;;5.82;2.65;;;;;;;25.30;66.35;102268.66;5069796;28;20090;-65